Date,TemperatureHighF,TemperatureAvgF,TemperatureLowF,DewpointHighF,DewpointAvgF,DewpointLowF,HumidityHigh,HumidityAvg,HumidityLow,PressureMaxIn,PressureMinIn,WindSpeedMaxMPH,WindSpeedAvgMPH,GustSpeedMaxMPH,PrecipitationSumIn
2014-1-1,22.0,15.7,7.0,-99.9,-99.9,-99.9,0,0,100,0.00,40.00,0,-999,0,0.03
2014-1-2,15.0,8.9,3.0,-99.9,-99.9,-99.9,0,0,100,0.00,40.00,0,-999,0,0.30
2014-1-3,5.0,1.7,-9.0,-99.9,-99.9,-99.9,0,0,100,0.00,40.00,0,-999,0,0.17
2014-1-4,20.0,1.3,-15.0,-99.9,-99.9,-99.9,0,0,100,0.00,40.00,0,-999,0,0.05
2014-1-5,34.0,17.2,1.0,-99.9,-99.9,-99.9,0,0,100,0.00,40.00,0,-999,0,0.22
2014-1-6,44.0,33.2,24.0,-99.9,-99.9,-99.9,0,0,100,0.00,40.00,0,-999,0,1.15
2014-1-7,24.0,8.7,4.0,-99.9,-99.9,-99.9,0,0,100,0.00,40.00,0,-999,0,0.02
2014-1-8,21.0,9.8,-1.0,-99.9,-99.9,-99.9,0,0,100,0.00,40.00,0,-999,0,0.01
2014-1-9,24.0,9.5,3.0,-99.9,-99.9,-99.9,0,0,100,0.00,40.00,0,-999,0,0.03
2014-1-10,31.0,19.3,7.0,-99.9,-99.9,-99.9,0,0,100,0.00,40.00,0,-999,0,0.30
2014-1-11,48.0,34.6,27.0,-99.9,-99.9,-99.9,0,0,100,0.00,40.00,0,-999,0,0.91
2014-1-12,46.0,39.7,35.0,-99.9,-99.9,-99.9,0,0,100,0.00,40.00,0,-999,0,0.59
2014-1-13,48.0,37.0,27.0,-99.9,-99.9,-99.9,0,0,100,0.00,40.00,0,-999,0,0.01
2014-1-14,44.0,40.1,35.0,-99.9,-99.9,-99.9,0,0,100,0.00,40.00,0,-999,0,0.61
2014-1-15,45.0,35.0,29.0,-99.9,-99.9,-99.9,0,0,100,0.00,40.00,0,-999,0,0.11
2014-1-16,35.0,32.6,30.0,-99.9,-99.9,-99.9,0,0,100,0.00,40.00,0,-999,0,0.03
2014-1-17,38.0,31.9,27.0,-99.9,-99.9,-99.9,0,0,100,0.00,40.00,0,-999,0,0.03
2014-1-18,35.0,29.8,26.0,-99.9,-99.9,-99.9,0,0,100,0.00,40.00,0,-999,0,0.38
2014-1-19,31.0,27.7,26.0,-99.9,-99.9,-99.9,0,0,100,0.00,40.00,0,-999,0,0.41
2014-1-20,36.0,28.2,14.0,-99.9,-99.9,-99.9,0,0,100,0.00,40.00,0,-999,0,0.01
2014-1-21,14.0,7.2,4.0,-99.9,-99.9,-99.9,0,0,100,0.00,40.00,0,-999,0,0.03
2014-1-22,11.0,2.8,-5.0,-99.9,-99.9,-99.9,0,0,100,0.00,40.00,0,-999,0,0.04
2014-1-23,15.0,4.7,-5.0,-99.9,-99.9,-99.9,0,0,100,0.00,40.00,0,-999,0,0.07
2014-1-24,13.0,7.3,-3.0,-99.9,-99.9,-99.9,0,0,100,0.00,40.00,0,-999,0,0.07
2014-1-25,25.0,18.3,11.0,-99.9,-99.9,-99.9,0,0,100,0.00,40.00,0,-999,0,0.13
2014-1-26,19.0,14.0,8.0,-99.9,-99.9,-99.9,0,0,100,0.00,40.00,0,-999,0,0.10
2014-1-27,34.0,22.8,14.0,-99.9,-99.9,-99.9,0,0,100,0.00,40.00,0,-999,0,0.09
2014-1-28,15.0,10.2,3.0,-99.9,-99.9,-99.9,0,0,100,0.00,40.00,0,-999,0,0.08
2014-1-29,22.0,12.2,1.0,-99.9,-99.9,-99.9,0,0,100,0.00,40.00,0,-999,0,0.03
2014-1-30,26.0,14.6,1.0,-99.9,-99.9,-99.9,0,0,100,0.00,40.00,0,-999,0,0.08
2014-1-31,36.0,25.2,15.0,-99.9,-99.9,-99.9,0,0,100,0.00,40.00,0,-999,0,0.84
2014-2-1,41.0,28.7,18.0,-99.9,-99.9,-99.9,0,0,100,0.00,40.00,0,-999,0,0.08
2014-2-2,41.0,35.0,29.0,-99.9,-99.9,-99.9,0,0,100,0.00,40.00,0,-999,0,0.05
2014-2-3,34.0,30.8,25.0,-99.9,-99.9,-99.9,0,0,100,0.00,40.00,0,-999,0,0.02
2014-2-4,33.0,24.6,15.0,-99.9,-99.9,-99.9,0,0,100,0.00,40.00,0,-999,0,0.05
2014-2-5,28.0,24.4,23.0,-99.9,-99.9,-99.9,0,0,100,0.00,40.00,0,-999,0,0.73
2014-2-6,24.0,15.4,5.0,-99.9,-99.9,-99.9,0,0,100,0.00,40.00,0,-999,0,0.12
2014-2-7,28.0,11.2,-6.0,-99.9,-99.9,-99.9,0,0,100,0.00,40.00,0,-999,0,0.07
2014-2-8,28.0,14.1,-4.0,-99.9,-99.9,-99.9,0,0,100,0.00,40.00,0,-999,0,0.07
2014-2-9,28.0,20.9,15.0,-99.9,-99.9,-99.9,0,0,100,0.00,40.00,0,-999,0,0.05
2014-2-10,22.0,16.7,2.0,-99.9,-99.9,-99.9,0,0,100,0.00,40.00,0,-999,0,0.05
2014-2-11,19.0,6.5,-8.0,-99.9,-99.9,-99.9,0,0,100,0.00,40.00,0,-999,0,0.09
2014-2-12,26.0,9.8,-7.0,-99.9,-99.9,-99.9,0,0,100,0.00,40.00,0,-999,0,32.36
2014-2-13,32.0,20.6,4.0,-99.9,-99.9,-99.9,0,0,100,0.00,40.00,0,-999,0,5.75
2014-2-14,32.0,26.8,23.0,-99.9,-99.9,-99.9,0,0,100,0.00,40.00,0,-999,0,3.80
2014-2-15,31.0,25.0,16.0,-99.9,-99.9,-99.9,0,0,100,0.00,40.00,0,-999,0,0.22
2014-2-16,28.0,21.7,16.0,-99.9,-99.9,-99.9,0,0,100,0.00,40.00,0,-999,0,0.14
2014-2-17,22.0,13.8,4.0,-99.9,-99.9,-99.9,0,0,100,0.00,40.00,0,-999,0,0.14
2014-2-18,23.0,11.3,-4.0,-99.9,-99.9,-99.9,0,0,100,0.00,40.00,0,-999,0,0.54
2014-2-19,27.0,17.2,5.0,-99.9,-99.9,-99.9,0,0,100,0.00,40.00,0,-999,0,4.67
2014-2-20,43.0,29.8,14.0,-99.9,-99.9,-99.9,0,0,100,0.00,40.00,0,-999,0,0.18
2014-2-21,37.0,34.0,32.0,-99.9,-99.9,-99.9,0,0,100,0.00,40.00,0,-999,0,1.13
2014-2-22,49.0,36.0,27.0,-99.9,-99.9,-99.9,0,0,100,0.00,40.00,0,-999,0,0.17
2014-2-23,48.0,34.2,24.0,-99.9,-99.9,-99.9,0,0,100,0.00,40.00,0,-999,0,0.02
2014-2-24,34.0,26.6,20.0,-99.9,-99.9,-99.9,0,0,100,0.00,40.00,0,-999,0,0.01
2014-2-25,24.0,19.5,15.0,-99.9,-99.9,-99.9,0,0,100,0.00,40.00,0,-999,0,0.03
2014-2-26,23.0,12.6,3.0,-99.9,-99.9,-99.9,0,0,100,0.00,40.00,0,-999,0,0.03
2014-2-27,23.0,12.8,3.0,-99.9,-99.9,-99.9,0,0,100,0.00,40.00,0,-999,0,0.03
2014-2-28,19.0,9.0,-3.0,-99.9,-99.9,-99.9,0,0,100,0.00,40.00,0,-999,0,0.07
2014-3-1,29.0,16.1,-2.0,-99.9,-99.9,-99.9,0,0,100,0.00,40.00,0,-999,0,0.04
2014-3-2,32.0,27.5,21.0,-99.9,-99.9,-99.9,0,0,100,0.00,40.00,0,-999,0,0.03
2014-3-3,21.0,14.2,3.0,-99.9,-99.9,-99.9,0,0,100,0.00,40.00,0,-999,0,0.01
2014-3-4,27.0,12.5,-5.0,-99.9,-99.9,-99.9,0,0,100,0.00,40.00,0,-999,0,0.03
2014-3-5,24.0,19.4,12.0,-99.9,-99.9,-99.9,0,0,100,0.00,40.00,0,-999,0,1.31
2014-3-6,30.0,15.7,5.0,-99.9,-99.9,-99.9,0,0,100,0.00,40.00,0,-999,0,0.02
2014-3-7,38.0,19.7,-2.0,-99.9,-99.9,-99.9,0,0,100,0.00,40.00,0,-999,0,0.03
2014-3-8,47.0,29.0,15.0,-99.9,-99.9,-99.9,0,0,100,0.00,40.00,0,-999,0,0.01
2014-3-9,34.0,28.7,23.0,-99.9,-99.9,-99.9,0,0,100,0.00,40.00,0,-999,0,0.02
2014-3-10,38.0,30.9,25.0,-99.9,-99.9,-99.9,0,0,100,0.00,40.00,0,-999,0,0.03
2014-3-11,53.0,38.0,27.0,-99.9,-99.9,-99.9,0,0,100,0.00,40.00,0,-999,0,0.02
2014-3-12,38.0,33.6,24.0,-99.9,-99.9,-99.9,0,0,100,0.00,40.00,0,-999,0,0.91
2014-3-13,24.0,14.6,10.0,-99.9,-99.9,-99.9,0,0,100,0.00,40.00,0,-999,0,0.58
2014-3-14,34.0,19.5,1.0,-99.9,-99.9,-99.9,0,0,100,0.00,40.00,0,-999,0,0.03
2014-3-15,49.0,38.4,30.0,-99.9,-99.9,-99.9,0,0,100,0.00,40.00,0,-999,0,0.01
2014-3-16,33.0,24.7,16.0,-99.9,-99.9,-99.9,0,0,100,0.00,40.00,0,-999,0,0.01
2014-3-17,27.0,16.9,10.0,-99.9,-99.9,-99.9,0,0,100,0.00,40.00,0,-999,0,0.04
2014-3-18,39.0,23.8,7.0,-99.9,-99.9,-99.9,0,0,100,0.00,40.00,0,-999,0,0.01
2014-3-19,40.0,28.3,17.0,-99.9,-99.9,-99.9,0,0,100,0.00,40.00,0,-999,0,0.17
2014-3-20,43.0,36.7,32.0,-99.9,-99.9,-99.9,0,0,100,0.00,40.00,0,-999,0,0.69
2014-3-21,37.0,34.0,26.0,-99.9,-99.9,-99.9,0,0,100,0.00,40.00,0,-999,0,0.01
2014-3-22,45.0,31.3,22.0,-99.9,-99.9,-99.9,0,0,100,0.00,40.00,0,-999,0,0.02
2014-3-23,34.0,30.4,17.0,-99.9,-99.9,-99.9,0,0,100,0.00,40.00,0,-999,0,0.02
2014-3-24,26.0,19.0,11.0,-99.9,-99.9,-99.9,0,0,100,0.00,40.00,0,-999,0,0.01
2014-3-25,35.0,23.2,8.0,-99.9,-99.9,-99.9,0,0,100,0.00,40.00,0,-999,0,0.01
2014-3-26,29.0,26.1,19.0,-99.9,-99.9,-99.9,0,0,100,0.00,40.00,0,-999,0,0.00
2014-3-27,40.0,27.1,11.0,-99.9,-99.9,-99.9,0,0,100,0.00,40.00,0,-999,0,0.00
2014-3-28,43.0,37.4,32.0,-99.9,-99.9,-99.9,0,0,100,0.00,40.00,0,-999,0,0.44
2014-3-29,52.0,41.0,34.0,-99.9,-99.9,-99.9,0,0,100,0.00,40.00,0,-999,0,0.39
2014-3-30,40.0,37.9,36.0,-99.9,-99.9,-99.9,0,0,100,0.00,40.00,0,-999,0,9.96
2014-3-31,38.0,34.7,32.0,-99.9,-99.9,-99.9,0,0,100,0.00,40.00,0,-999,0,5.31
2014-4-1,51.0,38.3,31.0,-99.9,-99.9,-99.9,0,0,100,0.00,40.00,0,-999,0,0.00
2014-4-2,56.0,39.2,28.0,-99.9,-99.9,-99.9,0,0,100,0.00,40.00,0,-999,0,0.00
2014-4-3,46.0,35.5,25.0,-99.9,-99.9,-99.9,0,0,100,0.00,40.00,0,-999,0,0.01
2014-4-4,49.0,38.9,31.0,-99.9,-99.9,-99.9,0,0,100,0.00,40.00,0,-999,0,0.21
2014-4-5,46.0,37.5,33.0,-99.9,-99.9,-99.9,0,0,100,0.00,40.00,0,-999,0,0.33
2014-4-6,51.0,39.4,30.0,-99.9,-99.9,-99.9,0,0,100,0.00,40.00,0,-999,0,0.01
2014-4-7,57.0,42.2,29.0,-99.9,-99.9,-99.9,0,0,100,0.00,40.00,0,-999,0,0.03
2014-4-8,58.0,45.5,39.0,-99.9,-99.9,-99.9,0,0,100,0.00,40.00,0,-999,0,0.30
2014-4-9,48.0,40.1,30.0,-99.9,-99.9,-99.9,0,0,100,0.00,40.00,0,-999,0,0.06
2014-4-10,62.0,43.5,24.0,-99.9,-99.9,-99.9,0,0,100,0.00,40.00,0,-999,0,0.00
2014-4-11,67.0,52.0,41.0,-99.9,-99.9,-99.9,0,0,100,0.00,40.00,0,-999,0,0.05
2014-4-12,63.0,47.7,34.0,-99.9,-99.9,-99.9,0,0,100,0.00,40.00,0,-999,0,0.05
2014-4-13,62.0,47.0,38.0,-99.9,-99.9,-99.9,0,0,100,0.00,40.00,0,-999,0,0.08
2014-4-14,74.0,58.7,41.0,-99.9,-99.9,-99.9,0,0,100,0.00,40.00,0,-999,0,0.02
2014-4-15,62.0,56.8,35.0,-99.9,-99.9,-99.9,0,0,100,0.00,40.00,0,-999,0,1.13
2014-4-16,36.0,31.3,25.0,-99.9,-99.9,-99.9,0,0,100,0.00,40.00,0,-999,0,0.66
2014-4-17,47.0,34.8,24.0,-99.9,-99.9,-99.9,0,0,100,0.00,40.00,0,-999,0,0.01
2014-4-18,47.0,37.1,25.0,-99.9,-99.9,-99.9,0,0,100,0.00,40.00,0,-999,0,0.00
2014-4-19,54.0,41.9,30.0,-99.9,-99.9,-99.9,0,0,100,0.00,40.00,0,-999,0,0.01
2014-4-21,71.0,63.0,50.0,-99.9,-99.9,-99.9,0,0,100,0.00,40.00,0,-999,0,0.00
2014-4-22,69.0,55.5,42.0,-99.9,-99.9,-99.9,0,0,100,0.00,40.00,0,-999,0,0.09
2014-4-23,52.0,47.8,44.0,-99.9,-99.9,-99.9,0,0,100,0.00,40.00,0,-999,0,0.14
2014-4-24,52.0,44.6,37.0,-99.9,-99.9,-99.9,0,0,100,0.00,40.00,0,-999,0,0.27
2014-4-25,64.0,48.0,30.0,-99.9,-99.9,-99.9,0,0,100,0.00,40.00,0,-999,0,0.14
2014-4-26,54.0,44.1,40.0,-99.9,-99.9,-99.9,0,0,100,0.00,40.00,0,-999,0,0.73
2014-4-27,47.0,43.8,40.0,-99.9,-99.9,-99.9,0,0,100,0.00,40.00,0,-999,0,0.22
2014-4-28,57.0,48.2,36.0,-99.9,-99.9,-99.9,0,0,100,0.00,40.00,0,-999,0,0.05
2014-4-29,48.0,43.6,40.0,-99.9,-99.9,-99.9,0,0,100,0.00,40.00,0,-999,0,0.02
2014-4-30,43.0,40.3,38.0,-99.9,-99.9,-99.9,0,0,100,0.00,40.00,0,-999,0,0.82
2014-5-1,66.0,50.3,40.0,-99.9,-99.9,-99.9,0,0,100,0.00,40.00,0,-999,0,1.09
2014-5-2,62.0,54.1,41.0,-99.9,-99.9,-99.9,0,0,100,0.00,40.00,0,-999,0,0.05
2014-5-3,62.0,51.9,42.0,-99.9,-99.9,-99.9,0,0,100,0.00,40.00,0,-999,0,0.01
2014-5-4,53.0,48.5,44.0,-99.9,-99.9,-99.9,0,0,100,0.00,40.00,0,-999,0,0.05
2014-5-5,56.0,51.1,45.0,-99.9,-99.9,-99.9,0,0,100,0.00,40.00,0,-999,0,0.01
2014-5-6,56.0,48.4,36.0,-99.9,-99.9,-99.9,0,0,100,0.00,40.00,0,-999,0,0.00
2014-5-7,41.0,41.0,41.0,-99.9,-99.9,-99.9,0,0,100,0.00,40.00,0,-999,0,0.00
2014-5-13,52.0,51.2,50.0,-99.9,-99.9,-99.9,0,0,100,0.00,40.00,0,-999,0,29.04
2014-5-14,73.0,58.6,47.0,-99.9,-99.9,-99.9,0,0,100,0.00,40.00,0,-999,0,0.06
2014-5-15,76.0,66.1,59.0,-99.9,-99.9,-99.9,0,0,100,0.00,40.00,0,-999,0,0.02
2014-5-16,68.0,65.5,64.0,-99.9,-99.9,-99.9,0,0,100,0.00,40.00,0,-999,0,0.05
2014-5-17,68.0,60.4,48.0,-99.9,-99.9,-99.9,0,0,100,0.00,40.00,0,-999,0,1.44
2014-5-18,65.0,53.7,41.0,-99.9,-99.9,-99.9,0,0,100,0.00,40.00,0,-999,0,0.01
2014-5-19,64.0,53.0,38.0,-99.9,-99.9,-99.9,0,0,100,0.00,40.00,0,-999,0,29.47
2014-5-20,71.0,56.8,42.0,-99.9,-99.9,-99.9,0,0,100,0.00,40.00,0,-999,0,0.00
2014-5-21,76.0,62.2,44.0,-99.9,-99.9,-99.9,0,0,100,0.00,40.00,0,-999,0,0.00
2014-5-22,61.0,55.2,50.0,-99.9,-99.9,-99.9,0,0,100,0.00,40.00,0,-999,0,0.64
2014-5-23,58.0,55.6,52.0,-99.9,-99.9,-99.9,0,0,100,0.00,40.00,0,-999,0,0.94
2014-5-24,65.0,55.8,51.0,-99.9,-99.9,-99.9,0,0,100,0.00,40.00,0,-999,0,7.72
2014-5-25,74.0,59.2,49.0,-99.9,-99.9,-99.9,0,0,100,0.00,40.00,0,-999,0,7.71
2014-5-26,75.0,61.9,51.0,-99.9,-99.9,-99.9,0,0,100,0.00,40.00,0,-999,0,40.14
2014-5-27,73.0,60.0,48.0,-99.9,-99.9,-99.9,0,0,100,0.00,40.00,0,-999,0,1.35
2014-5-28,52.0,49.3,46.0,-99.9,-99.9,-99.9,0,0,100,0.00,40.00,0,-999,0,0.05
2014-5-29,68.0,53.4,41.0,-99.9,-99.9,-99.9,0,0,100,0.00,40.00,0,-999,0,32.50
2014-5-30,69.0,55.9,49.0,-99.9,-99.9,-99.9,0,0,100,0.00,40.00,0,-999,0,0.55
2014-5-31,66.0,55.4,47.0,-99.9,-99.9,-99.9,0,0,100,0.00,40.00,0,-999,0,0.29
2014-6-1,74.0,59.4,44.0,-99.9,-99.9,-99.9,0,0,100,0.00,40.00,0,-999,0,0.22
2014-6-2,81.0,64.5,47.0,-99.9,-99.9,-99.9,0,0,100,0.00,40.00,0,-999,0,0.00
2014-6-3,84.0,68.5,54.0,-99.9,-99.9,-99.9,0,0,100,0.00,40.00,0,-999,0,0.52
2014-6-4,72.0,64.1,58.0,-99.9,-99.9,-99.9,0,0,100,0.00,40.00,0,-999,0,0.50
2014-6-5,70.0,60.4,55.0,-99.9,-99.9,-99.9,0,0,100,0.00,40.00,0,-999,0,0.12
2014-6-6,69.0,61.9,56.0,-99.9,-99.9,-99.9,0,0,100,0.00,40.00,0,-999,0,0.02
2014-6-7,78.0,64.6,49.0,-99.9,-99.9,-99.9,0,0,100,0.00,40.00,0,-999,0,0.00
2014-6-8,82.0,68.7,53.0,-99.9,-99.9,-99.9,0,0,100,0.00,40.00,0,-999,0,0.00
2014-6-9,75.0,65.8,60.0,-99.9,-99.9,-99.9,0,0,100,0.00,40.00,0,-999,0,0.06
2014-6-10,78.0,67.1,59.0,-99.9,-99.9,-99.9,0,0,100,0.00,40.00,0,-999,0,0.11
2014-6-11,67.0,61.9,56.0,-99.9,-99.9,-99.9,0,0,100,0.00,40.00,0,-999,0,0.08
2014-6-12,61.0,58.8,55.0,-99.9,-99.9,-99.9,0,0,100,0.00,40.00,0,-999,0,0.17
2014-6-13,63.0,60.9,58.0,-99.9,-99.9,-99.9,0,0,100,0.00,40.00,0,-999,0,1.66
2014-6-14,70.0,61.5,52.0,-99.9,-99.9,-99.9,0,0,100,0.00,40.00,0,-999,0,0.08
2014-6-15,72.0,62.1,51.0,-99.9,-99.9,-99.9,0,0,100,0.00,40.00,0,-999,0,0.02
2014-6-16,80.0,63.5,48.0,-99.9,-99.9,-99.9,0,0,100,0.00,40.00,0,-999,0,0.04
2014-6-17,87.0,72.4,58.0,-99.9,-99.9,-99.9,0,0,100,0.00,40.00,0,-999,0,0.05
2014-6-18,78.0,72.0,65.0,-99.9,-99.9,-99.9,0,0,100,0.00,40.00,0,-999,0,0.78
2014-6-19,76.0,67.9,56.0,-99.9,-99.9,-99.9,0,0,100,0.00,40.00,0,-999,0,0.26
2014-6-20,69.0,59.8,48.0,-99.9,-99.9,-99.9,0,0,100,0.00,40.00,0,-999,0,0.00
2014-6-21,68.0,58.6,45.0,-99.9,-99.9,-99.9,0,0,100,0.00,40.00,0,-999,0,0.01
2014-6-22,75.0,61.2,46.0,-99.9,-99.9,-99.9,0,0,100,0.00,40.00,0,-999,0,0.01
2014-6-23,80.0,66.2,52.0,-99.9,-99.9,-99.9,0,0,100,0.00,40.00,0,-999,0,0.01
2014-6-24,76.0,68.6,60.0,-99.9,-99.9,-99.9,0,0,100,0.00,40.00,0,-999,0,0.01
2014-6-25,82.0,72.6,63.0,-99.9,-99.9,-99.9,0,0,100,0.00,40.00,0,-999,0,0.04
2014-6-26,76.0,69.9,64.0,-99.9,-99.9,-99.9,0,0,100,0.00,40.00,0,-999,0,36.28
2014-6-27,78.0,66.9,58.0,-99.9,-99.9,-99.9,0,0,100,0.00,40.00,0,-999,0,0.16
2014-6-28,86.0,69.2,55.0,-99.9,-99.9,-99.9,0,0,100,0.00,40.00,0,-999,0,0.01
2014-6-29,85.0,70.6,56.0,-99.9,-99.9,-99.9,0,0,100,0.00,40.00,0,-999,0,0.01
2014-6-30,84.0,72.8,61.0,-99.9,-99.9,-99.9,0,0,100,0.00,40.00,0,-999,0,0.00
2014-7-1,86.0,76.7,66.0,-99.9,-99.9,-99.9,0,0,100,0.00,40.00,0,-999,0,0.07
2014-7-2,88.0,76.2,69.0,-99.9,-99.9,-99.9,0,0,100,0.00,40.00,0,-999,0,4.24
2014-7-3,85.0,73.7,67.0,-99.9,-99.9,-99.9,0,0,100,0.00,40.00,0,-999,0,1.05
2014-7-4,69.0,66.5,62.0,-99.9,-99.9,-99.9,0,0,100,0.00,40.00,0,-999,0,1.08
2014-7-5,78.0,68.1,59.0,-99.9,-99.9,-99.9,0,0,100,0.00,40.00,0,-999,0,0.14
2014-7-6,82.0,68.9,55.0,-99.9,-99.9,-99.9,0,0,100,0.00,40.00,0,-999,0,0.61
2014-7-7,81.0,70.6,62.0,-99.9,-99.9,-99.9,0,0,100,0.00,40.00,0,-999,0,0.61
2014-7-8,83.0,76.3,66.0,-99.9,-99.9,-99.9,0,0,100,0.00,40.00,0,-999,0,42.88
2014-7-9,83.0,73.6,64.0,-99.9,-99.9,-99.9,0,0,100,0.00,40.00,0,-999,0,0.09
2014-7-10,79.0,68.1,60.0,-99.9,0.0,200.0,0,0,100,0.00,40.00,0,0,0,35.54
2014-7-11,80.0,67.5,54.0,-99.9,0.0,200.0,0,0,100,0.00,40.00,0,0,0,0.00
2014-7-12,84.0,70.6,56.0,-99.9,0.0,200.0,0,0,100,0.00,40.00,0,0,0,0.00
2014-7-13,79.0,71.6,63.0,-99.9,0.0,200.0,0,0,100,0.00,40.00,0,0,0,0.18
2014-7-14,84.0,75.5,69.0,-99.9,0.0,200.0,0,0,100,0.00,40.00,0,0,0,0.79
2014-7-15,78.0,72.2,69.0,-99.9,0.0,200.0,0,0,100,0.00,40.00,0,0,0,2.87
2014-7-16,80.0,70.6,63.0,-99.9,0.0,200.0,0,0,100,0.00,40.00,0,0,0,0.91
2014-7-17,77.0,66.6,57.0,-99.9,0.0,200.0,0,0,100,0.00,40.00,0,0,0,0.13
2014-7-18,77.0,65.9,54.0,-99.9,0.0,200.0,0,0,100,0.00,40.00,0,0,0,0.00
2014-7-19,78.0,66.1,55.0,-99.9,0.0,200.0,0,0,100,0.00,40.00,0,0,0,0.00
2014-7-20,78.0,67.8,59.0,-99.9,0.0,200.0,0,0,100,0.00,40.00,0,0,0,0.05
2014-7-21,84.0,70.1,56.0,-99.9,0.0,200.0,0,0,100,0.00,40.00,0,0,0,0.05
2014-7-22,88.0,76.4,62.0,-99.9,0.0,200.0,0,0,100,0.00,40.00,0,0,0,40.54
2014-7-23,87.0,75.2,68.0,-99.9,0.0,200.0,0,0,100,0.00,40.00,0,0,0,0.34
2014-7-24,74.0,69.1,62.0,-99.9,0.0,200.0,0,0,100,0.00,40.00,0,0,0,40.97
2014-7-25,79.0,64.5,53.0,-99.9,0.0,200.0,0,0,100,0.00,40.00,0,0,0,0.00
2014-7-26,79.0,69.0,58.0,-99.9,0.0,200.0,0,0,100,0.00,40.00,0,0,0,0.00
2014-7-27,76.0,67.5,61.0,-99.9,0.0,200.0,0,0,100,0.00,40.00,0,0,0,1.16
2014-7-28,77.0,68.4,64.0,-99.9,0.0,200.0,0,0,100,0.00,40.00,0,0,0,1.16
2014-7-29,74.0,65.5,58.0,-99.9,0.0,200.0,0,0,100,0.00,40.00,0,0,0,0.00
2014-7-30,75.0,64.6,55.0,-99.9,0.0,200.0,0,0,100,0.00,40.00,0,0,0,0.00
2014-7-31,74.0,61.8,54.0,-99.9,0.0,200.0,0,0,100,0.00,40.00,0,0,0,0.53
2014-8-1,82.0,69.3,60.0,-99.9,0.0,200.0,0,0,100,0.00,40.00,0,0,0,0.52
2014-8-2,75.0,69.4,62.0,-99.9,0.0,200.0,0,0,100,0.00,40.00,0,0,0,0.03
2014-8-3,77.0,67.4,58.0,-99.9,0.0,200.0,0,0,100,0.00,40.00,0,0,0,0.03
2014-8-4,79.0,69.1,61.0,-99.9,0.0,200.0,0,0,100,0.00,40.00,0,0,0,0.04
2014-8-5,82.0,72.4,61.0,-99.9,0.0,200.0,0,0,100,0.00,40.00,0,0,0,0.03
2014-8-6,77.0,69.6,61.0,-99.9,0.0,200.0,0,0,100,0.00,40.00,0,0,0,0.44
2014-8-7,72.0,61.4,53.0,-99.9,0.0,200.0,0,0,100,0.00,40.00,0,0,0,0.38
2014-8-8,75.0,63.9,52.0,-99.9,0.0,200.0,0,0,100,0.00,40.00,0,0,0,0.05
2014-8-9,79.0,67.9,54.0,-99.9,0.0,200.0,0,0,100,0.00,40.00,0,0,0,0.00
2014-8-10,82.0,67.1,54.0,-99.9,0.0,200.0,0,0,100,0.00,40.00,0,0,0,0.00
2014-8-11,85.0,70.8,57.0,-99.9,0.0,200.0,0,0,100,0.00,40.00,0,0,0,0.00
2014-8-12,77.0,69.8,60.0,-99.9,0.0,200.0,0,0,100,0.00,40.00,0,0,0,0.00
2014-8-13,70.0,66.4,61.0,-99.9,0.0,200.0,0,0,100,0.00,40.00,0,0,0,4.76
2014-8-14,72.0,61.5,55.0,-99.9,0.0,200.0,0,0,100,0.00,40.00,0,0,0,0.03
2014-8-15,66.0,59.3,54.0,-99.9,0.0,200.0,0,0,100,0.00,40.00,0,0,0,0.05
2014-8-16,72.0,62.2,52.0,-99.9,0.0,200.0,0,0,100,0.00,40.00,0,0,0,0.00
2014-8-17,71.0,63.8,57.0,-99.9,0.0,200.0,0,0,100,0.00,40.00,0,0,0,0.00
2014-8-18,70.0,60.0,53.0,-99.9,0.0,200.0,0,0,100,0.00,40.00,0,0,0,0.00
2014-8-19,77.0,62.1,47.0,-99.9,0.0,200.0,0,0,100,0.00,40.00,0,0,0,0.00
2014-8-20,82.0,67.7,52.0,-99.9,0.0,200.0,0,0,100,0.00,40.00,0,0,0,0.00
2014-8-21,66.0,63.1,59.0,-99.9,0.0,200.0,0,0,100,0.00,40.00,0,0,0,1.16
2014-8-22,65.0,61.4,58.0,-99.9,0.0,200.0,0,0,100,0.00,40.00,0,0,0,0.84
2014-8-23,73.0,64.6,58.0,-99.9,0.0,200.0,0,0,100,0.00,40.00,0,0,0,0.43
2014-8-24,80.0,66.8,54.0,-99.9,0.0,200.0,0,0,100,0.00,40.00,0,0,0,0.00
2014-8-25,84.0,69.0,54.0,-99.9,0.0,200.0,0,0,100,0.00,40.00,0,0,0,50.69
2014-8-26,85.0,70.4,57.0,-99.9,0.0,200.0,0,0,100,0.00,40.00,0,0,0,0.00
2014-8-27,85.0,72.6,61.0,-99.9,0.0,200.0,0,0,100,0.00,40.00,0,0,0,0.00
2014-8-28,72.0,67.4,57.0,-99.9,0.0,200.0,0,0,100,0.00,40.00,0,0,0,0.00
2014-8-29,77.0,63.0,50.0,-99.9,0.0,200.0,0,0,100,0.00,40.00,0,0,0,0.00
2014-8-30,74.0,65.6,54.0,-99.9,0.0,200.0,0,0,100,0.00,40.00,0,0,0,0.00
2014-8-31,80.0,70.8,64.0,-99.9,0.0,200.0,0,0,100,0.00,40.00,0,0,0,0.20
2014-9-1,85.0,74.7,67.0,-99.9,0.0,200.0,0,0,100,0.00,40.00,0,0,0,0.15
2014-9-2,82.0,73.2,65.0,-99.9,0.0,200.0,0,0,100,0.00,40.00,0,0,0,50.69
2014-9-3,78.0,69.8,61.0,-99.9,0.0,200.0,0,0,100,0.00,40.00,0,0,0,0.11
2014-9-4,81.0,67.1,56.0,-99.9,0.0,200.0,0,0,100,0.00,40.00,0,0,0,0.03
2014-9-5,85.0,72.7,60.0,-99.9,0.0,200.0,0,0,100,0.00,40.00,0,0,0,50.95
2014-9-6,83.0,74.8,67.0,-99.9,0.0,200.0,0,0,100,0.00,40.00,0,0,0,0.04
2014-9-7,72.0,64.7,55.0,-99.9,0.0,200.0,0,0,100,0.00,40.00,0,0,0,0.09
2014-9-8,74.0,62.0,51.0,-99.9,0.0,200.0,0,0,100,0.00,40.00,0,0,0,50.95
2014-9-9,69.0,59.0,49.0,-99.9,0.0,200.0,0,0,100,0.00,40.00,0,0,0,0.00
2014-9-10,70.0,59.3,52.0,-99.9,0.0,200.0,0,0,100,0.00,40.00,0,0,0,0.00
2014-9-11,70.0,63.0,55.0,-99.9,0.0,200.0,0,0,100,0.00,40.00,0,0,0,0.16
2014-9-12,63.0,57.7,49.0,-99.9,0.0,200.0,0,0,100,0.00,40.00,0,0,0,0.03
2014-9-13,58.0,51.7,44.0,-99.9,0.0,200.0,0,0,100,0.00,40.00,0,0,0,0.72
2014-9-14,60.0,51.5,45.0,-99.9,0.0,200.0,0,0,100,0.00,40.00,0,0,0,0.20
2014-9-15,62.0,50.4,41.0,-99.9,0.0,200.0,0,0,100,0.00,40.00,0,0,0,0.00
2014-9-16,63.0,54.3,50.0,-99.9,0.0,200.0,0,0,100,0.00,40.00,0,0,0,0.24
2014-9-17,66.0,53.8,45.0,-99.9,0.0,200.0,0,0,100,0.00,40.00,0,0,0,0.04
2014-9-18,66.0,52.5,41.0,-99.9,0.0,200.0,0,0,100,0.00,40.00,0,0,0,0.00
2014-9-19,59.0,47.1,39.0,-99.9,0.0,200.0,0,0,100,0.00,40.00,0,0,0,0.00
2014-9-20,67.0,51.7,38.0,-99.9,0.0,200.0,0,0,100,0.00,40.00,0,0,0,0.00
2014-9-21,74.0,63.9,56.0,-99.9,0.0,200.0,0,0,100,0.00,40.00,0,0,0,0.02
2014-9-22,66.0,60.1,46.0,-99.9,0.0,200.0,0,0,100,0.00,40.00,0,0,0,0.02
2014-9-23,68.0,54.3,40.0,-99.9,0.0,200.0,0,0,100,0.00,40.00,0,0,0,0.00
2014-9-24,69.0,55.5,44.0,-99.9,0.0,200.0,0,0,100,0.00,40.00,0,0,0,0.03
2014-9-25,65.0,54.4,47.0,-99.9,0.0,200.0,0,0,100,0.00,40.00,0,0,0,0.03
2014-9-26,73.0,58.9,44.0,-99.9,0.0,200.0,0,0,100,0.00,40.00,0,0,0,0.08
2014-9-27,78.0,62.1,49.0,-99.9,0.0,200.0,0,0,100,0.00,40.00,0,0,0,0.08
2014-9-28,85.0,65.4,53.0,-99.9,0.0,200.0,0,0,100,0.00,40.00,0,0,0,0.00
2014-9-29,76.0,62.8,55.0,-99.9,0.0,200.0,0,0,100,0.00,40.00,0,0,0,0.00
2014-9-30,63.0,59.5,57.0,-99.9,0.0,200.0,0,0,100,0.00,40.00,0,0,0,0.00
2014-10-1,60.0,57.5,56.0,-99.9,0.0,200.0,0,0,100,0.00,40.00,0,0,0,0.47
2014-10-2,67.0,57.9,52.0,-99.9,0.0,200.0,0,0,100,0.00,40.00,0,0,0,0.14
2014-10-3,68.0,55.2,45.0,-99.9,0.0,200.0,0,0,100,0.00,40.00,0,0,0,0.01
2014-10-4,58.0,54.8,52.0,-99.9,0.0,200.0,0,0,100,0.00,40.00,0,0,0,1.74
2014-10-5,58.0,50.5,40.0,-99.9,0.0,200.0,0,0,100,0.00,40.00,0,0,0,0.89
2014-10-6,63.0,48.7,35.0,-99.9,0.0,200.0,0,0,100,0.00,40.00,0,0,0,0.01
2014-10-7,69.0,59.1,47.0,-99.9,0.0,200.0,0,0,100,0.00,40.00,0,0,0,0.01
2014-10-8,68.0,61.5,54.0,-99.9,0.0,200.0,0,0,100,0.00,40.00,0,0,0,0.39
2014-10-9,60.0,51.6,40.0,-99.9,0.0,200.0,0,0,100,0.00,40.00,0,0,0,0.14
2014-10-10,58.0,47.1,38.0,-99.9,0.0,200.0,0,0,100,0.00,40.00,0,0,0,0.00
2014-10-11,57.0,44.8,38.0,-99.9,0.0,200.0,0,0,100,0.00,40.00,0,0,0,0.00
2014-10-12,58.0,44.4,34.0,-99.9,0.0,200.0,0,0,100,0.00,40.00,0,0,0,0.00
2014-10-13,59.0,43.9,33.0,-99.9,0.0,200.0,0,0,100,0.00,40.00,0,0,0,0.00
2014-10-14,72.0,61.8,54.0,-99.9,0.0,200.0,0,0,100,0.00,40.00,0,0,0,0.00
2014-10-15,74.0,68.0,60.0,-99.9,0.0,200.0,0,0,100,0.00,40.00,0,0,0,0.01
2014-10-16,70.0,67.3,60.0,-99.9,0.0,200.0,0,0,100,0.00,40.00,0,0,0,0.82
2014-10-17,69.0,60.2,52.0,-99.9,0.0,200.0,0,0,100,0.00,40.00,0,0,0,0.03
2014-10-18,61.0,55.1,50.0,-99.9,0.0,200.0,0,0,100,0.00,40.00,0,0,0,0.01
2014-10-19,53.0,46.3,40.0,-99.9,0.0,200.0,0,0,100,0.00,40.00,0,0,0,0.01
2014-10-20,55.0,43.1,30.0,-99.9,0.0,200.0,0,0,100,0.00,40.00,0,0,0,0.00
2014-10-21,55.0,49.3,45.0,-99.9,0.0,200.0,0,0,100,0.00,40.00,0,0,0,0.01
2014-10-22,52.0,50.1,48.0,-99.9,0.0,200.0,0,0,100,0.00,40.00,0,0,0,0.09
2014-10-23,50.0,48.4,47.0,-99.9,0.0,200.0,0,0,100,0.00,40.00,0,0,0,2.50
2014-10-24,49.0,47.1,45.0,-99.9,0.0,200.0,0,0,100,0.00,40.00,0,0,0,0.07
2014-10-25,63.0,47.9,37.0,-99.9,0.0,200.0,0,0,100,0.00,40.00,0,0,0,0.01
2014-10-26,52.0,46.3,41.0,-99.9,0.0,200.0,0,0,100,0.00,40.00,0,0,0,0.01
2014-10-27,56.0,48.5,41.0,-99.9,0.0,200.0,0,0,100,0.00,40.00,0,0,0,0.00
2014-10-28,64.0,48.7,38.0,-99.9,0.0,200.0,0,0,100,0.00,40.00,0,0,0,0.00
2014-10-29,58.0,50.3,44.0,-99.9,0.0,200.0,0,0,100,0.00,40.00,0,0,0,0.17
2014-10-30,52.0,44.5,37.0,-99.9,0.0,200.0,0,0,100,0.00,40.00,0,0,0,0.11
2014-10-31,49.0,44.2,38.0,-99.9,0.0,200.0,0,0,100,0.00,40.00,0,0,0,0.00
2014-11-1,42.0,40.1,38.0,-99.9,0.0,200.0,0,0,100,0.00,40.00,0,0,0,0.06
2014-11-2,41.0,37.9,36.0,-99.9,0.0,200.0,0,0,100,0.00,40.00,0,0,0,0.02
2014-11-3,50.0,38.4,30.0,-99.9,0.0,200.0,0,0,100,0.00,40.00,0,0,0,0.00
2014-11-4,59.0,40.9,29.0,-99.9,0.0,200.0,0,0,100,0.00,40.00,0,0,0,0.00
2014-11-5,58.0,46.1,35.0,-99.9,0.0,200.0,0,0,100,0.00,40.00,0,0,0,0.00
2014-11-6,45.0,40.0,34.0,-99.9,0.0,200.0,0,0,100,0.00,40.00,0,0,0,0.20
2014-11-7,42.0,39.4,36.0,-99.9,0.0,200.0,0,0,100,0.00,40.00,0,0,0,0.15
2014-11-8,45.0,37.9,29.0,-99.9,0.0,200.0,0,0,100,0.00,40.00,0,0,0,0.00
2014-11-9,52.0,41.4,31.0,-99.9,0.0,200.0,0,0,100,0.00,40.00,0,0,0,0.00
2014-11-10,53.0,37.9,29.0,-99.9,0.0,200.0,0,0,100,0.00,40.00,0,0,0,0.00
2014-11-11,59.0,44.1,32.0,-99.9,0.0,200.0,0,0,100,0.00,40.00,0,0,0,0.00
2014-11-12,60.0,49.7,36.0,-99.9,0.0,200.0,0,0,100,0.00,40.00,0,0,0,0.00
2014-11-13,43.0,36.6,28.0,-99.9,0.0,200.0,0,0,100,0.00,40.00,0,0,0,0.02
2014-11-14,38.0,33.6,28.0,-99.9,0.0,200.0,0,0,100,0.00,40.00,0,0,0,0.05
2014-11-15,36.0,29.5,24.0,-99.9,0.0,200.0,0,0,100,0.00,40.00,0,0,0,0.00
2014-11-16,39.0,29.9,21.0,-99.9,0.0,200.0,0,0,100,0.00,40.00,0,0,0,0.00
2014-11-17,35.0,33.7,31.0,-99.9,0.0,200.0,0,0,100,0.00,40.00,0,0,0,1.04
2014-11-18,34.0,28.9,22.0,-99.9,0.0,200.0,0,0,100,0.00,40.00,0,0,0,0.17
2014-11-19,32.0,25.6,21.0,-99.9,0.0,200.0,0,0,100,0.00,40.00,0,0,0,0.00
2014-11-20,40.0,30.5,25.0,-99.9,0.0,200.0,0,0,100,0.00,40.00,0,0,0,0.00
2014-11-21,29.0,25.2,18.0,-99.9,0.0,200.0,0,0,100,0.00,40.00,0,0,0,0.00
2014-11-22,38.0,27.2,15.0,-99.9,0.0,200.0,0,0,100,0.00,40.00,0,0,0,0.00
2014-11-23,54.0,40.4,33.0,-99.9,0.0,200.0,0,0,100,0.00,40.00,0,0,0,0.00
2014-11-24,64.0,51.7,32.0,-99.9,0.0,200.0,0,0,100,0.00,40.00,0,0,0,0.49
2014-11-25,59.0,50.3,35.0,-99.9,0.0,200.0,0,0,100,0.00,40.00,0,0,0,0.02
2014-11-26,38.0,33.4,30.0,-99.9,0.0,200.0,0,0,100,0.00,40.00,0,0,0,1.04
2014-11-27,31.0,29.9,27.0,-99.9,0.0,200.0,0,0,100,0.00,40.00,0,0,0,0.31
2014-11-28,31.0,25.7,16.0,-99.9,0.0,200.0,0,0,100,0.00,40.00,0,0,0,0.00
2014-11-29,30.0,20.7,13.0,-99.9,0.0,200.0,0,0,100,0.00,40.00,0,0,0,0.00
2014-11-30,43.0,34.8,23.0,-99.9,0.0,200.0,0,0,100,0.00,40.00,0,0,0,0.00
2014-12-1,51.0,38.4,33.0,-99.9,0.0,200.0,0,0,100,0.00,40.00,0,0,0,0.00
2014-12-2,35.0,30.8,25.0,-99.9,0.0,200.0,0,0,100,0.00,40.00,0,0,0,0.08
2014-12-3,38.0,34.1,30.0,-99.9,0.0,200.0,0,0,100,0.00,40.00,0,0,0,0.30
2014-12-4,36.0,32.6,23.0,-99.9,0.0,200.0,0,0,100,0.00,40.00,0,0,0,0.01
2014-12-5,36.0,27.5,18.0,-99.9,0.0,200.0,0,0,100,0.00,40.00,0,0,0,0.11
2014-12-6,36.0,33.1,30.0,-99.9,0.0,200.0,0,0,100,0.00,40.00,0,0,0,1.03
2014-12-7,36.0,26.0,14.0,-99.9,0.0,200.0,0,0,100,0.00,40.00,0,0,0,0.18
2014-12-8,24.0,17.5,9.0,-99.9,0.0,200.0,0,0,100,0.00,40.00,0,0,0,0.00
2014-12-9,38.0,31.1,24.0,-99.9,0.0,200.0,0,0,100,0.00,40.00,0,0,0,0.97
2014-12-10,36.0,34.7,33.0,-99.9,0.0,200.0,0,0,100,0.00,40.00,0,0,0,0.52
2014-12-11,34.0,31.7,30.0,-99.9,0.0,200.0,0,0,100,0.00,40.00,0,0,0,0.12
2014-12-12,32.0,30.0,27.0,-99.9,0.0,200.0,0,0,100,0.00,40.00,0,0,0,0.01
2014-12-13,36.0,31.0,28.0,-99.9,0.0,200.0,0,0,100,0.00,40.00,0,0,0,0.00
2014-12-14,35.0,30.5,24.0,-99.9,0.0,200.0,0,0,100,0.00,40.00,0,0,0,0.00
2014-12-15,34.0,32.5,31.0,-99.9,0.0,200.0,0,0,100,0.00,40.00,0,0,0,0.00
2014-12-16,34.0,31.2,28.0,-99.9,0.0,200.0,0,0,100,0.00,40.00,0,0,0,0.03
2014-12-17,42.0,35.9,33.0,-99.9,0.0,200.0,0,0,100,0.00,40.00,0,0,0,0.49
2014-12-18,38.0,34.8,32.0,-99.9,0.0,200.0,0,0,100,0.00,40.00,0,0,0,0.02
2014-12-19,32.0,29.9,25.0,-99.9,0.0,200.0,0,0,100,0.00,40.00,0,0,0,0.01
2014-12-20,37.0,27.0,20.0,-99.9,0.0,200.0,0,0,100,0.00,40.00,0,0,0,0.00
2014-12-21,32.0,30.5,29.0,-99.9,0.0,200.0,0,0,100,0.00,40.00,0,0,0,0.00
2014-12-22,36.0,33.2,30.0,-99.9,0.0,200.0,0,0,100,0.00,40.00,0,0,0,0.00
2014-12-23,39.0,35.5,33.0,-99.9,0.0,200.0,0,0,100,0.00,40.00,0,0,0,0.68
2014-12-24,39.0,36.8,35.0,-99.9,0.0,200.0,0,0,100,0.00,40.00,0,0,0,0.44
2014-12-25,47.0,42.4,36.0,-99.9,0.0,200.0,0,0,100,0.00,40.00,0,0,0,0.30
2014-12-26,44.0,39.0,29.0,-99.9,0.0,200.0,0,0,100,0.00,40.00,0,0,0,0.01
2014-12-27,47.0,33.5,27.0,-99.9,0.0,200.0,0,0,100,0.00,40.00,0,0,0,0.00
2014-12-28,46.0,40.1,32.0,-99.9,0.0,200.0,0,0,100,0.00,40.00,0,0,0,0.16
2014-12-29,36.0,31.2,25.0,-99.9,0.0,200.0,0,0,100,0.00,40.00,0,0,0,0.04
2014-12-30,25.0,20.7,15.0,-99.9,0.0,200.0,0,0,100,0.00,40.00,0,0,0,0.00
2014-12-31,24.0,15.9,10.0,-99.9,0.0,200.0,0,0,100,0.00,40.00,0,0,0,0.00
2015-1-1,30.0,19.8,11.0,-99.9,0.0,200.0,0,0,100,0.00,40.00,0,0,0,0.00
2015-1-2,35.0,28.6,19.0,-99.9,0.0,200.0,0,0,100,0.00,40.00,0,0,0,0.00